Аэропорт: Орск. Орск

ICAO: UWOR

METAR:
2024-07-24 15:44:00
UWOR 241544Z 08005MPS 0550 0450NW +TSRA VV001 18/18 Q1003 R07/CLRD65 NOSIG RMK QBB030 QFE728/0970
TAF:
2024-07-24 13:48:00
TAF UWOR 241348Z 2415/2424 10005G14MPS 6000 BKN016CB TX19/2415Z TN16/2423Z 
  TEMPO 2415/2424 07009G18MPS 2000 TSRA BKN010CB